sensor_id;sensor_type;location;lat;lon;timestamp;P1;durP1;ratioP1;P2;durP2;ratioP2
7823;SDS011;3957;48.61947800;9.05303100;2024-02-26T00:00:40;1.48;;;1.17;;
7823;SDS011;3957;48.61947800;9.05303100;2024-02-26T00:01:42;1.20;;;1.10;;
7823;SDS011;3957;48.61947800;9.05303100;2024-02-26T00:02:44;1.40;;;1.10;;
7823;SDS011;3957;48.61947800;9.05303100;2024-02-26T00:03:46;1.60;;;1.42;;
7823;SDS011;3957;48.61947800;9.05303100;2024-02-26T00:04:49;1.55;;;1.38;;
7823;SDS011;3957;48.61947800;9.05303100;2024-02-26T00:05:51;4.20;;;1.20;;
7823;SDS011;3957;48.61947800;9.05303100;2024-02-26T00:06:52;1.45;;;1.25;;
7823;SDS011;3957;48.61947800;9.05303100;2024-02-26T00:07:56;1.30;;;1.00;;
7823;SDS011;3957;48.61947800;9.05303100;2024-02-26T00:08:57;1.30;;;1.20;;
7823;SDS011;3957;48.61947800;9.05303100;2024-02-26T00:09:59;1.17;;;1.08;;
7823;SDS011;3957;48.61947800;9.05303100;2024-02-26T00:11:01;1.10;;;1.00;;
7823;SDS011;3957;48.61947800;9.05303100;2024-02-26T00:12:03;1.40;;;1.30;;
7823;SDS011;3957;48.61947800;9.05303100;2024-02-26T00:13:05;1.30;;;1.20;;
7823;SDS011;3957;48.61947800;9.05303100;2024-02-26T00:14:07;0.93;;;0.85;;
7823;SDS011;3957;48.61947800;9.05303100;2024-02-26T00:15:08;1.40;;;1.30;;
7823;SDS011;3957;48.61947800;9.05303100;2024-02-26T00:16:11;1.10;;;1.00;;
7823;SDS011;3957;48.61947800;9.05303100;2024-02-26T00:17:13;1.47;;;1.37;;
7823;SDS011;3957;48.61947800;9.05303100;2024-02-26T00:18:14;1.90;;;1.25;;
7823;SDS011;3957;48.61947800;9.05303100;2024-02-26T00:19:16;1.27;;;1.17;;
7823;SDS011;3957;48.61947800;9.05303100;2024-02-26T00:20:18;1.10;;;1.10;;
7823;SDS011;3957;48.61947800;9.05303100;2024-02-26T00:21:19;1.38;;;1.27;;
7823;SDS011;3957;48.61947800;9.05303100;2024-02-26T00:22:21;1.00;;;1.00;;
7823;SDS011;3957;48.61947800;9.05303100;2024-02-26T00:23:23;1.60;;;1.00;;
7823;SDS011;3957;48.61947800;9.05303100;2024-02-26T00:24:25;1.88;;;1.30;;
7823;SDS011;3957;48.61947800;9.05303100;2024-02-26T00:25:26;1.65;;;1.20;;
7823;SDS011;3957;48.61947800;9.05303100;2024-02-26T00:26:28;1.23;;;1.13;;
7823;SDS011;3957;48.61947800;9.05303100;2024-02-26T00:27:30;1.30;;;1.20;;
7823;SDS011;3957;48.61947800;9.05303100;2024-02-26T00:28:31;1.40;;;1.00;;
7823;SDS011;3957;48.61947800;9.05303100;2024-02-26T00:29:33;1.10;;;1.00;;
7823;SDS011;3957;48.61947800;9.05303100;2024-02-26T00:30:34;1.15;;;1.05;;
7823;SDS011;3957;48.61947800;9.05303100;2024-02-26T00:31:36;1.23;;;0.90;;
7823;SDS011;3957;48.61947800;9.05303100;2024-02-26T00:32:39;1.27;;;1.17;;
7823;SDS011;3957;48.61947800;9.05303100;2024-02-26T00:33:41;1.20;;;1.10;;
7823;SDS011;3957;48.61947800;9.05303100;2024-02-26T00:34:42;1.02;;;1.02;;
7823;SDS011;3957;48.61947800;9.05303100;2024-02-26T00:35:44;1.30;;;1.20;;
7823;SDS011;3957;48.61947800;9.05303100;2024-02-26T00:36:46;1.23;;;1.10;;
7823;SDS011;3957;48.61947800;9.05303100;2024-02-26T00:37:47;1.58;;;1.33;;
7823;SDS011;3957;48.61947800;9.05303100;2024-02-26T00:38:49;1.30;;;1.20;;
7823;SDS011;3957;48.61947800;9.05303100;2024-02-26T00:39:54;1.88;;;0.90;;
7823;SDS011;3957;48.61947800;9.05303100;2024-02-26T00:40:56;1.30;;;1.20;;
7823;SDS011;3957;48.61947800;9.05303100;2024-02-26T00:41:57;0.90;;;0.90;;
7823;SDS011;3957;48.61947800;9.05303100;2024-02-26T00:42:59;0.90;;;0.90;;
7823;SDS011;3957;48.61947800;9.05303100;2024-02-26T00:44:01;1.60;;;1.40;;
7823;SDS011;3957;48.61947800;9.05303100;2024-02-26T00:45:02;1.40;;;1.30;;
7823;SDS011;3957;48.61947800;9.05303100;2024-02-26T00:46:04;1.75;;;1.27;;
7823;SDS011;3957;48.61947800;9.05303100;2024-02-26T00:47:06;1.20;;;1.10;;
7823;SDS011;3957;48.61947800;9.05303100;2024-02-26T00:48:07;0.80;;;0.80;;
7823;SDS011;3957;48.61947800;9.05303100;2024-02-26T00:49:09;1.60;;;1.50;;
7823;SDS011;3957;48.61947800;9.05303100;2024-02-26T00:50:11;1.90;;;1.70;;
7823;SDS011;3957;48.61947800;9.05303100;2024-02-26T00:51:13;2.00;;;1.52;;
7823;SDS011;3957;48.61947800;9.05303100;2024-02-26T00:52:14;1.90;;;1.60;;
7823;SDS011;3957;48.61947800;9.05303100;2024-02-26T00:53:16;1.38;;;1.27;;
7823;SDS011;3957;48.61947800;9.05303100;2024-02-26T00:54:18;1.48;;;1.38;;
7823;SDS011;3957;48.61947800;9.05303100;2024-02-26T00:55:19;1.10;;;1.10;;
7823;SDS011;3957;48.61947800;9.05303100;2024-02-26T00:56:21;1.13;;;1.02;;
7823;SDS011;3957;48.61947800;9.05303100;2024-02-26T00:57:23;1.35;;;1.20;;
7823;SDS011;3957;48.61947800;9.05303100;2024-02-26T00:58:25;1.20;;;1.10;;
7823;SDS011;3957;48.61947800;9.05303100;2024-02-26T00:59:27;1.08;;;1.00;;
7823;SDS011;3957;48.61947800;9.05303100;2024-02-26T01:00:28;1.38;;;1.27;;
7823;SDS011;3957;48.61947800;9.05303100;2024-02-26T01:01:30;1.30;;;1.20;;
7823;SDS011;3957;48.61947800;9.05303100;2024-02-26T01:02:31;1.20;;;1.10;;
7823;SDS011;3957;48.61947800;9.05303100;2024-02-26T01:03:33;1.20;;;1.10;;
7823;SDS011;3957;48.61947800;9.05303100;2024-02-26T01:04:35;1.65;;;1.27;;
7823;SDS011;3957;48.61947800;9.05303100;2024-02-26T01:05:36;1.05;;;0.98;;
7823;SDS011;3957;48.61947800;9.05303100;2024-02-26T01:06:39;1.40;;;1.05;;
7823;SDS011;3957;48.61947800;9.05303100;2024-02-26T01:07:41;1.15;;;1.05;;
7823;SDS011;3957;48.61947800;9.05303100;2024-02-26T01:08:43;0.93;;;0.93;;
7823;SDS011;3957;48.61947800;9.05303100;2024-02-26T01:09:44;1.77;;;1.67;;
7823;SDS011;3957;48.61947800;9.05303100;2024-02-26T01:10:46;1.77;;;1.65;;
7823;SDS011;3957;48.61947800;9.05303100;2024-02-26T01:11:47;1.77;;;1.50;;
7823;SDS011;3957;48.61947800;9.05303100;2024-02-26T01:12:49;1.55;;;1.45;;
7823;SDS011;3957;48.61947800;9.05303100;2024-02-26T01:13:50;1.10;;;1.00;;
7823;SDS011;3957;48.61947800;9.05303100;2024-02-26T01:14:57;1.38;;;1.27;;
7823;SDS011;3957;48.61947800;9.05303100;2024-02-26T01:15:59;1.50;;;1.40;;
7823;SDS011;3957;48.61947800;9.05303100;2024-02-26T01:17:02;1.15;;;0.82;;
7823;SDS011;3957;48.61947800;9.05303100;2024-02-26T01:18:04;1.20;;;1.10;;
7823;SDS011;3957;48.61947800;9.05303100;2024-02-26T01:19:06;1.20;;;1.05;;
7823;SDS011;3957;48.61947800;9.05303100;2024-02-26T01:20:08;1.30;;;1.10;;
7823;SDS011;3957;48.61947800;9.05303100;2024-02-26T01:21:10;1.40;;;1.20;;
7823;SDS011;3957;48.61947800;9.05303100;2024-02-26T01:22:11;1.67;;;1.10;;
7823;SDS011;3957;48.61947800;9.05303100;2024-02-26T01:23:13;1.15;;;1.13;;
7823;SDS011;3957;48.61947800;9.05303100;2024-02-26T01:24:15;1.30;;;1.20;;
7823;SDS011;3957;48.61947800;9.05303100;2024-02-26T01:25:17;1.27;;;1.10;;
7823;SDS011;3957;48.61947800;9.05303100;2024-02-26T01:26:19;1.33;;;1.25;;
7823;SDS011;3957;48.61947800;9.05303100;2024-02-26T01:27:20;1.40;;;1.30;;
7823;SDS011;3957;48.61947800;9.05303100;2024-02-26T01:28:22;1.35;;;1.10;;
7823;SDS011;3957;48.61947800;9.05303100;2024-02-26T01:29:24;1.08;;;1.02;;
7823;SDS011;3957;48.61947800;9.05303100;2024-02-26T01:30:25;1.20;;;1.10;;
7823;SDS011;3957;48.61947800;9.05303100;2024-02-26T01:31:27;1.80;;;1.10;;
7823;SDS011;3957;48.61947800;9.05303100;2024-02-26T01:32:28;1.35;;;1.25;;
7823;SDS011;3957;48.61947800;9.05303100;2024-02-26T01:33:30;0.93;;;0.93;;
7823;SDS011;3957;48.61947800;9.05303100;2024-02-26T01:34:32;1.10;;;1.00;;
7823;SDS011;3957;48.61947800;9.05303100;2024-02-26T01:35:33;1.30;;;1.20;;
7823;SDS011;3957;48.61947800;9.05303100;2024-02-26T01:36:35;1.10;;;1.00;;
7823;SDS011;3957;48.61947800;9.05303100;2024-02-26T01:37:37;1.27;;;1.00;;
7823;SDS011;3957;48.61947800;9.05303100;2024-02-26T01:38:39;1.40;;;1.30;;
7823;SDS011;3957;48.61947800;9.05303100;2024-02-26T01:39:41;1.88;;;1.27;;
7823;SDS011;3957;48.61947800;9.05303100;2024-02-26T01:40:43;1.40;;;1.30;;
7823;SDS011;3957;48.61947800;9.05303100;2024-02-26T01:41:44;1.65;;;1.35;;
7823;SDS011;3957;48.61947800;9.05303100;2024-02-26T01:42:46;1.52;;;1.20;;
7823;SDS011;3957;48.61947800;9.05303100;2024-02-26T01:43:47;1.27;;;1.17;;
7823;SDS011;3957;48.61947800;9.05303100;2024-02-26T01:44:49;1.10;;;1.00;;
7823;SDS011;3957;48.61947800;9.05303100;2024-02-26T01:45:50;1.20;;;1.10;;
7823;SDS011;3957;48.61947800;9.05303100;2024-02-26T01:46:52;1.42;;;1.33;;
7823;SDS011;3957;48.61947800;9.05303100;2024-02-26T01:47:54;1.35;;;1.20;;
7823;SDS011;3957;48.61947800;9.05303100;2024-02-26T01:48:57;1.30;;;1.10;;
7823;SDS011;3957;48.61947800;9.05303100;2024-02-26T01:49:59;1.45;;;1.35;;
7823;SDS011;3957;48.61947800;9.05303100;2024-02-26T01:51:00;1.45;;;1.25;;
7823;SDS011;3957;48.61947800;9.05303100;2024-02-26T01:52:02;1.27;;;1.10;;
7823;SDS011;3957;48.61947800;9.05303100;2024-02-26T01:53:05;1.30;;;1.20;;
7823;SDS011;3957;48.61947800;9.05303100;2024-02-26T01:54:08;1.90;;;1.30;;
7823;SDS011;3957;48.61947800;9.05303100;2024-02-26T01:55:10;2.25;;;1.40;;
7823;SDS011;3957;48.61947800;9.05303100;2024-02-26T01:56:12;1.20;;;1.10;;
7823;SDS011;3957;48.61947800;9.05303100;2024-02-26T01:57:14;1.25;;;1.15;;
7823;SDS011;3957;48.61947800;9.05303100;2024-02-26T01:58:16;1.50;;;1.40;;
7823;SDS011;3957;48.61947800;9.05303100;2024-02-26T01:59:17;1.30;;;1.20;;
7823;SDS011;3957;48.61947800;9.05303100;2024-02-26T02:00:20;0.80;;;0.80;;
7823;SDS011;3957;48.61947800;9.05303100;2024-02-26T02:01:25;1.20;;;1.10;;
7823;SDS011;3957;48.61947800;9.05303100;2024-02-26T02:02:28;1.10;;;1.00;;
7823;SDS011;3957;48.61947800;9.05303100;2024-02-26T02:03:29;1.48;;;1.05;;
7823;SDS011;3957;48.61947800;9.05303100;2024-02-26T02:04:32;1.30;;;1.20;;
7823;SDS011;3957;48.61947800;9.05303100;2024-02-26T02:05:34;1.13;;;1.10;;
7823;SDS011;3957;48.61947800;9.05303100;2024-02-26T02:06:42;1.40;;;1.30;;
7823;SDS011;3957;48.61947800;9.05303100;2024-02-26T02:07:46;1.02;;;1.02;;
7823;SDS011;3957;48.61947800;9.05303100;2024-02-26T02:08:50;1.10;;;1.00;;
7823;SDS011;3957;48.61947800;9.05303100;2024-02-26T02:09:52;1.10;;;1.00;;
7823;SDS011;3957;48.61947800;9.05303100;2024-02-26T02:10:54;1.20;;;1.10;;
7823;SDS011;3957;48.61947800;9.05303100;2024-02-26T02:11:56;0.82;;;0.80;;
7823;SDS011;3957;48.61947800;9.05303100;2024-02-26T02:12:59;1.15;;;1.05;;
7823;SDS011;3957;48.61947800;9.05303100;2024-02-26T02:14:00;1.48;;;1.38;;
7823;SDS011;3957;48.61947800;9.05303100;2024-02-26T02:15:02;1.30;;;1.00;;
7823;SDS011;3957;48.61947800;9.05303100;2024-02-26T02:16:04;1.90;;;1.15;;
7823;SDS011;3957;48.61947800;9.05303100;2024-02-26T02:17:06;1.20;;;1.10;;
7823;SDS011;3957;48.61947800;9.05303100;2024-02-26T02:18:08;1.33;;;1.23;;
7823;SDS011;3957;48.61947800;9.05303100;2024-02-26T02:19:10;1.20;;;1.10;;
7823;SDS011;3957;48.61947800;9.05303100;2024-02-26T02:20:15;1.77;;;1.02;;
7823;SDS011;3957;48.61947800;9.05303100;2024-02-26T02:21:19;1.20;;;1.20;;
7823;SDS011;3957;48.61947800;9.05303100;2024-02-26T02:22:21;2.55;;;1.25;;
7823;SDS011;3957;48.61947800;9.05303100;2024-02-26T02:23:22;1.02;;;1.00;;
7823;SDS011;3957;48.61947800;9.05303100;2024-02-26T02:24:24;0.95;;;0.95;;
7823;SDS011;3957;48.61947800;9.05303100;2024-02-26T02:25:25;0.88;;;0.88;;
7823;SDS011;3957;48.61947800;9.05303100;2024-02-26T02:26:27;1.23;;;1.13;;
7823;SDS011;3957;48.61947800;9.05303100;2024-02-26T02:27:29;1.55;;;1.30;;
7823;SDS011;3957;48.61947800;9.05303100;2024-02-26T02:28:30;0.93;;;0.90;;
7823;SDS011;3957;48.61947800;9.05303100;2024-02-26T02:29:32;1.52;;;1.20;;
7823;SDS011;3957;48.61947800;9.05303100;2024-02-26T02:30:34;1.23;;;1.10;;
7823;SDS011;3957;48.61947800;9.05303100;2024-02-26T02:31:37;1.05;;;1.00;;
7823;SDS011;3957;48.61947800;9.05303100;2024-02-26T02:32:39;1.38;;;1.27;;
7823;SDS011;3957;48.61947800;9.05303100;2024-02-26T02:33:44;1.30;;;1.20;;
7823;SDS011;3957;48.61947800;9.05303100;2024-02-26T02:34:47;1.05;;;0.95;;
7823;SDS011;3957;48.61947800;9.05303100;2024-02-26T02:35:48;1.30;;;1.20;;
7823;SDS011;3957;48.61947800;9.05303100;2024-02-26T02:36:54;0.93;;;0.82;;
7823;SDS011;3957;48.61947800;9.05303100;2024-02-26T02:37:56;1.10;;;1.10;;
7823;SDS011;3957;48.61947800;9.05303100;2024-02-26T02:38:58;0.98;;;0.98;;
7823;SDS011;3957;48.61947800;9.05303100;2024-02-26T02:40:00;1.10;;;1.00;;
7823;SDS011;3957;48.61947800;9.05303100;2024-02-26T02:41:01;1.30;;;1.30;;
7823;SDS011;3957;48.61947800;9.05303100;2024-02-26T02:42:03;1.55;;;1.15;;
7823;SDS011;3957;48.61947800;9.05303100;2024-02-26T02:43:05;1.13;;;1.05;;
7823;SDS011;3957;48.61947800;9.05303100;2024-02-26T02:44:07;1.20;;;1.10;;
7823;SDS011;3957;48.61947800;9.05303100;2024-02-26T02:45:08;1.35;;;1.20;;
7823;SDS011;3957;48.61947800;9.05303100;2024-02-26T02:46:10;0.90;;;0.90;;
7823;SDS011;3957;48.61947800;9.05303100;2024-02-26T02:47:15;1.40;;;1.30;;
7823;SDS011;3957;48.61947800;9.05303100;2024-02-26T02:48:16;1.30;;;1.17;;
7823;SDS011;3957;48.61947800;9.05303100;2024-02-26T02:49:18;1.00;;;1.00;;
7823;SDS011;3957;48.61947800;9.05303100;2024-02-26T02:50:20;1.42;;;1.20;;
7823;SDS011;3957;48.61947800;9.05303100;2024-02-26T02:51:22;1.73;;;0.93;;
7823;SDS011;3957;48.61947800;9.05303100;2024-02-26T02:52:23;1.20;;;1.10;;
7823;SDS011;3957;48.61947800;9.05303100;2024-02-26T02:53:25;1.00;;;1.00;;
7823;SDS011;3957;48.61947800;9.05303100;2024-02-26T02:54:26;1.30;;;1.10;;
7823;SDS011;3957;48.61947800;9.05303100;2024-02-26T02:55:28;1.20;;;1.10;;
7823;SDS011;3957;48.61947800;9.05303100;2024-02-26T02:56:30;1.10;;;1.00;;
7823;SDS011;3957;48.61947800;9.05303100;2024-02-26T02:57:31;2.67;;;1.25;;
7823;SDS011;3957;48.61947800;9.05303100;2024-02-26T02:58:34;1.40;;;1.30;;
7823;SDS011;3957;48.61947800;9.05303100;2024-02-26T02:59:37;1.15;;;1.05;;
7823;SDS011;3957;48.61947800;9.05303100;2024-02-26T03:00:39;1.10;;;1.10;;
7823;SDS011;3957;48.61947800;9.05303100;2024-02-26T03:01:40;1.20;;;1.10;;
7823;SDS011;3957;48.61947800;9.05303100;2024-02-26T03:02:42;1.10;;;1.00;;
7823;SDS011;3957;48.61947800;9.05303100;2024-02-26T03:03:46;1.25;;;1.20;;
7823;SDS011;3957;48.61947800;9.05303100;2024-02-26T03:04:47;1.20;;;1.10;;
7823;SDS011;3957;48.61947800;9.05303100;2024-02-26T03:05:49;0.80;;;0.80;;
7823;SDS011;3957;48.61947800;9.05303100;2024-02-26T03:06:50;1.90;;;1.40;;
7823;SDS011;3957;48.61947800;9.05303100;2024-02-26T03:07:52;1.15;;;0.98;;
7823;SDS011;3957;48.61947800;9.05303100;2024-02-26T03:08:54;1.10;;;0.90;;
7823;SDS011;3957;48.61947800;9.05303100;2024-02-26T03:09:56;1.60;;;1.10;;
7823;SDS011;3957;48.61947800;9.05303100;2024-02-26T03:10:58;1.00;;;0.90;;
7823;SDS011;3957;48.61947800;9.05303100;2024-02-26T03:12:00;0.95;;;0.95;;
7823;SDS011;3957;48.61947800;9.05303100;2024-02-26T03:13:02;0.95;;;0.95;;
7823;SDS011;3957;48.61947800;9.05303100;2024-02-26T03:14:04;1.00;;;0.98;;
7823;SDS011;3957;48.61947800;9.05303100;2024-02-26T03:15:06;1.40;;;1.30;;
7823;SDS011;3957;48.61947800;9.05303100;2024-02-26T03:16:08;0.82;;;0.82;;
7823;SDS011;3957;48.61947800;9.05303100;2024-02-26T03:17:10;1.00;;;0.90;;
7823;SDS011;3957;48.61947800;9.05303100;2024-02-26T03:18:11;1.30;;;1.20;;
7823;SDS011;3957;48.61947800;9.05303100;2024-02-26T03:19:16;0.90;;;0.90;;
7823;SDS011;3957;48.61947800;9.05303100;2024-02-26T03:20:18;0.80;;;0.80;;
7823;SDS011;3957;48.61947800;9.05303100;2024-02-26T03:21:21;1.10;;;1.00;;
7823;SDS011;3957;48.61947800;9.05303100;2024-02-26T03:22:22;1.15;;;1.05;;
7823;SDS011;3957;48.61947800;9.05303100;2024-02-26T03:23:24;1.10;;;1.00;;
7823;SDS011;3957;48.61947800;9.05303100;2024-02-26T03:24:26;1.10;;;1.10;;
7823;SDS011;3957;48.61947800;9.05303100;2024-02-26T03:25:27;1.10;;;1.00;;
7823;SDS011;3957;48.61947800;9.05303100;2024-02-26T03:26:29;1.27;;;1.17;;
7823;SDS011;3957;48.61947800;9.05303100;2024-02-26T03:27:32;1.30;;;1.20;;
7823;SDS011;3957;48.61947800;9.05303100;2024-02-26T03:28:33;1.08;;;0.98;;
7823;SDS011;3957;48.61947800;9.05303100;2024-02-26T03:29:35;1.02;;;1.02;;
7823;SDS011;3957;48.61947800;9.05303100;2024-02-26T03:30:38;1.30;;;1.20;;
7823;SDS011;3957;48.61947800;9.05303100;2024-02-26T03:31:39;0.80;;;0.80;;
7823;SDS011;3957;48.61947800;9.05303100;2024-02-26T03:32:41;1.33;;;1.10;;
7823;SDS011;3957;48.61947800;9.05303100;2024-02-26T03:33:43;0.95;;;0.95;;
7823;SDS011;3957;48.61947800;9.05303100;2024-02-26T03:34:45;1.08;;;1.02;;
7823;SDS011;3957;48.61947800;9.05303100;2024-02-26T03:35:46;1.20;;;1.10;;
7823;SDS011;3957;48.61947800;9.05303100;2024-02-26T03:36:48;1.35;;;1.08;;
7823;SDS011;3957;48.61947800;9.05303100;2024-02-26T03:37:49;1.10;;;1.00;;
7823;SDS011;3957;48.61947800;9.05303100;2024-02-26T03:38:52;1.20;;;1.10;;
7823;SDS011;3957;48.61947800;9.05303100;2024-02-26T03:39:54;1.00;;;0.90;;
7823;SDS011;3957;48.61947800;9.05303100;2024-02-26T03:40:56;1.10;;;1.10;;
7823;SDS011;3957;48.61947800;9.05303100;2024-02-26T03:41:57;1.05;;;1.00;;
7823;SDS011;3957;48.61947800;9.05303100;2024-02-26T03:42:59;0.73;;;0.73;;
7823;SDS011;3957;48.61947800;9.05303100;2024-02-26T03:44:01;1.27;;;1.00;;
7823;SDS011;3957;48.61947800;9.05303100;2024-02-26T03:45:02;0.90;;;0.90;;
7823;SDS011;3957;48.61947800;9.05303100;2024-02-26T03:46:07;1.02;;;1.02;;
7823;SDS011;3957;48.61947800;9.05303100;2024-02-26T03:47:09;1.23;;;1.13;;
7823;SDS011;3957;48.61947800;9.05303100;2024-02-26T03:48:10;0.85;;;0.82;;
7823;SDS011;3957;48.61947800;9.05303100;2024-02-26T03:49:12;1.15;;;1.13;;
7823;SDS011;3957;48.61947800;9.05303100;2024-02-26T03:50:14;0.98;;;0.98;;
7823;SDS011;3957;48.61947800;9.05303100;2024-02-26T03:51:16;0.80;;;0.80;;
7823;SDS011;3957;48.61947800;9.05303100;2024-02-26T03:52:18;1.00;;;1.00;;
7823;SDS011;3957;48.61947800;9.05303100;2024-02-26T03:53:19;6.63;;;3.60;;
7823;SDS011;3957;48.61947800;9.05303100;2024-02-26T03:54:21;12.75;;;7.03;;
7823;SDS011;3957;48.61947800;9.05303100;2024-02-26T03:55:23;11.05;;;5.38;;
7823;SDS011;3957;48.61947800;9.05303100;2024-02-26T03:56:26;21.88;;;10.82;;
7823;SDS011;3957;48.61947800;9.05303100;2024-02-26T03:57:28;91.63;;;38.25;;
7823;SDS011;3957;48.61947800;9.05303100;2024-02-26T03:58:29;116.60;;;48.47;;
7823;SDS011;3957;48.61947800;9.05303100;2024-02-26T03:59:31;104.53;;;45.08;;
7823;SDS011;3957;48.61947800;9.05303100;2024-02-26T04:00:32;88.60;;;40.20;;
7823;SDS011;3957;48.61947800;9.05303100;2024-02-26T04:01:34;74.88;;;35.10;;
7823;SDS011;3957;48.61947800;9.05303100;2024-02-26T04:02:36;81.75;;;36.70;;
7823;SDS011;3957;48.61947800;9.05303100;2024-02-26T04:03:37;78.82;;;36.90;;
7823;SDS011;3957;48.61947800;9.05303100;2024-02-26T04:04:39;70.38;;;33.60;;
7823;SDS011;3957;48.61947800;9.05303100;2024-02-26T04:05:40;36.80;;;18.90;;
7823;SDS011;3957;48.61947800;9.05303100;2024-02-26T04:06:45;28.30;;;14.35;;
7823;SDS011;3957;48.61947800;9.05303100;2024-02-26T04:07:47;35.92;;;17.73;;
7823;SDS011;3957;48.61947800;9.05303100;2024-02-26T04:08:49;26.95;;;14.55;;
7823;SDS011;3957;48.61947800;9.05303100;2024-02-26T04:09:51;12.32;;;6.50;;
7823;SDS011;3957;48.61947800;9.05303100;2024-02-26T04:10:52;4.57;;;3.08;;
7823;SDS011;3957;48.61947800;9.05303100;2024-02-26T04:11:54;3.28;;;1.90;;
7823;SDS011;3957;48.61947800;9.05303100;2024-02-26T04:12:55;4.72;;;1.20;;
7823;SDS011;3957;48.61947800;9.05303100;2024-02-26T04:13:57;2.25;;;1.80;;
7823;SDS011;3957;48.61947800;9.05303100;2024-02-26T04:14:58;1.38;;;1.27;;
7823;SDS011;3957;48.61947800;9.05303100;2024-02-26T04:16:00;1.33;;;1.20;;
7823;SDS011;3957;48.61947800;9.05303100;2024-02-26T04:17:03;1.40;;;1.30;;
7823;SDS011;3957;48.61947800;9.05303100;2024-02-26T04:18:04;1.30;;;1.20;;
7823;SDS011;3957;48.61947800;9.05303100;2024-02-26T04:19:06;1.17;;;1.00;;
7823;SDS011;3957;48.61947800;9.05303100;2024-02-26T04:20:12;1.17;;;1.07;;
7823;SDS011;3957;48.61947800;9.05303100;2024-02-26T04:21:15;0.80;;;0.80;;
7823;SDS011;3957;48.61947800;9.05303100;2024-02-26T04:22:16;2.25;;;1.25;;
7823;SDS011;3957;48.61947800;9.05303100;2024-02-26T04:23:18;1.75;;;1.40;;
7823;SDS011;3957;48.61947800;9.05303100;2024-02-26T04:24:19;2.15;;;1.35;;
7823;SDS011;3957;48.61947800;9.05303100;2024-02-26T04:25:21;2.58;;;1.45;;
7823;SDS011;3957;48.61947800;9.05303100;2024-02-26T04:26:22;1.27;;;1.17;;
7823;SDS011;3957;48.61947800;9.05303100;2024-02-26T04:27:24;1.45;;;1.35;;
7823;SDS011;3957;48.61947800;9.05303100;2024-02-26T04:28:26;1.70;;;1.60;;
7823;SDS011;3957;48.61947800;9.05303100;2024-02-26T04:29:30;1.40;;;0.93;;
7823;SDS011;3957;48.61947800;9.05303100;2024-02-26T04:30:31;1.30;;;1.20;;
7823;SDS011;3957;48.61947800;9.05303100;2024-02-26T04:31:33;1.00;;;0.93;;
7823;SDS011;3957;48.61947800;9.05303100;2024-02-26T04:32:34;0.80;;;0.80;;
7823;SDS011;3957;48.61947800;9.05303100;2024-02-26T04:33:36;0.98;;;0.98;;
7823;SDS011;3957;48.61947800;9.05303100;2024-02-26T04:34:38;0.80;;;0.80;;
7823;SDS011;3957;48.61947800;9.05303100;2024-02-26T04:35:40;1.30;;;1.20;;
7823;SDS011;3957;48.61947800;9.05303100;2024-02-26T04:36:41;1.00;;;1.00;;
7823;SDS011;3957;48.61947800;9.05303100;2024-02-26T04:37:43;0.95;;;0.90;;
7823;SDS011;3957;48.61947800;9.05303100;2024-02-26T04:38:45;2.38;;;1.13;;
7823;SDS011;3957;48.61947800;9.05303100;2024-02-26T04:39:46;0.95;;;0.90;;
7823;SDS011;3957;48.61947800;9.05303100;2024-02-26T04:40:51;1.00;;;0.95;;
7823;SDS011;3957;48.61947800;9.05303100;2024-02-26T04:41:53;1.20;;;0.93;;
7823;SDS011;3957;48.61947800;9.05303100;2024-02-26T04:42:54;1.10;;;0.95;;
7823;SDS011;3957;48.61947800;9.05303100;2024-02-26T04:43:56;1.10;;;1.10;;
7823;SDS011;3957;48.61947800;9.05303100;2024-02-26T04:44:57;0.90;;;0.90;;
7823;SDS011;3957;48.61947800;9.05303100;2024-02-26T04:45:59;1.00;;;0.90;;
7823;SDS011;3957;48.61947800;9.05303100;2024-02-26T04:47:00;1.30;;;1.20;;
7823;SDS011;3957;48.61947800;9.05303100;2024-02-26T04:48:03;0.90;;;0.90;;
7823;SDS011;3957;48.61947800;9.05303100;2024-02-26T04:49:05;0.95;;;0.95;;
7823;SDS011;3957;48.61947800;9.05303100;2024-02-26T04:50:07;3.42;;;1.20;;
7823;SDS011;3957;48.61947800;9.05303100;2024-02-26T04:51:09;2.30;;;1.30;;
7823;SDS011;3957;48.61947800;9.05303100;2024-02-26T04:52:11;1.17;;;1.07;;
7823;SDS011;3957;48.61947800;9.05303100;2024-02-26T04:53:12;1.42;;;1.33;;
7823;SDS011;3957;48.61947800;9.05303100;2024-02-26T04:54:14;2.35;;;1.20;;
7823;SDS011;3957;48.61947800;9.05303100;2024-02-26T04:55:16;1.40;;;1.30;;
7823;SDS011;3957;48.61947800;9.05303100;2024-02-26T04:56:17;1.17;;;1.17;;
7823;SDS011;3957;48.61947800;9.05303100;2024-02-26T04:57:19;1.48;;;1.38;;
7823;SDS011;3957;48.61947800;9.05303100;2024-02-26T04:58:21;1.60;;;1.50;;
7823;SDS011;3957;48.61947800;9.05303100;2024-02-26T04:59:22;1.50;;;1.40;;
7823;SDS011;3957;48.61947800;9.05303100;2024-02-26T05:00:23;1.65;;;1.30;;
7823;SDS011;3957;48.61947800;9.05303100;2024-02-26T05:01:25;1.60;;;1.50;;
7823;SDS011;3957;48.61947800;9.05303100;2024-02-26T05:02:27;1.92;;;1.50;;
7823;SDS011;3957;48.61947800;9.05303100;2024-02-26T05:03:28;1.48;;;1.20;;
7823;SDS011;3957;48.61947800;9.05303100;2024-02-26T05:04:31;1.38;;;1.27;;
7823;SDS011;3957;48.61947800;9.05303100;2024-02-26T05:05:32;1.77;;;1.27;;
7823;SDS011;3957;48.61947800;9.05303100;2024-02-26T05:06:36;1.42;;;1.30;;
7823;SDS011;3957;48.61947800;9.05303100;2024-02-26T05:07:41;1.55;;;1.45;;
7823;SDS011;3957;48.61947800;9.05303100;2024-02-26T05:08:43;3.53;;;1.23;;
7823;SDS011;3957;48.61947800;9.05303100;2024-02-26T05:09:46;2.10;;;1.50;;
7823;SDS011;3957;48.61947800;9.05303100;2024-02-26T05:10:47;1.50;;;1.30;;
7823;SDS011;3957;48.61947800;9.05303100;2024-02-26T05:11:49;2.47;;;1.50;;
7823;SDS011;3957;48.61947800;9.05303100;2024-02-26T05:12:51;1.55;;;1.30;;
7823;SDS011;3957;48.61947800;9.05303100;2024-02-26T05:13:52;1.40;;;1.23;;
7823;SDS011;3957;48.61947800;9.05303100;2024-02-26T05:14:53;1.48;;;1.30;;
7823;SDS011;3957;48.61947800;9.05303100;2024-02-26T05:15:55;1.40;;;1.30;;
7823;SDS011;3957;48.61947800;9.05303100;2024-02-26T05:16:57;2.70;;;1.10;;
7823;SDS011;3957;48.61947800;9.05303100;2024-02-26T05:17:58;1.58;;;1.48;;
7823;SDS011;3957;48.61947800;9.05303100;2024-02-26T05:19:00;1.42;;;1.30;;
7823;SDS011;3957;48.61947800;9.05303100;2024-02-26T05:20:02;1.30;;;1.20;;
7823;SDS011;3957;48.61947800;9.05303100;2024-02-26T05:21:04;1.40;;;1.30;;
7823;SDS011;3957;48.61947800;9.05303100;2024-02-26T05:22:05;1.40;;;1.30;;
7823;SDS011;3957;48.61947800;9.05303100;2024-02-26T05:23:07;1.33;;;1.23;;
7823;SDS011;3957;48.61947800;9.05303100;2024-02-26T05:24:08;1.38;;;1.20;;
7823;SDS011;3957;48.61947800;9.05303100;2024-02-26T05:25:10;1.25;;;1.15;;
7823;SDS011;3957;48.61947800;9.05303100;2024-02-26T05:26:12;2.10;;;1.20;;
7823;SDS011;3957;48.61947800;9.05303100;2024-02-26T05:27:20;1.55;;;1.17;;
7823;SDS011;3957;48.61947800;9.05303100;2024-02-26T05:28:22;1.20;;;1.10;;
7823;SDS011;3957;48.61947800;9.05303100;2024-02-26T05:29:24;1.75;;;1.50;;
7823;SDS011;3957;48.61947800;9.05303100;2024-02-26T05:30:25;1.77;;;1.05;;
7823;SDS011;3957;48.61947800;9.05303100;2024-02-26T05:31:29;0.90;;;0.90;;
7823;SDS011;3957;48.61947800;9.05303100;2024-02-26T05:32:30;1.33;;;1.20;;